Aviation Digital Data Service (ADDS)

Output produced by METARs form (0110 UTC 25 March 2019)
found at http://www.aviationweather.gov/metar/data/
 
METAR text: LFLW 250100Z AUTO 00000KT 7000 NSC 02/01 Q1023
Conditions at: LFLW (AURILLAC (AUT) , FR) observed 0100 UTC 25 March 2019
Temperature: 2.0°C (36°F)
Dewpoint: 1.0°C (34°F) [RH = 93%]
Pressure (altimeter): 30.21 inches Hg (1023.0 mb)
Winds: calm
Visibility: 4 miles ( 7 km)
Ceiling: at least 12,000 feet AGL
Clouds: sky clear below 12,000 feet AGL
Weather: no significant weather observed at this time

Forecast for: LFLW (AURILLAC (AUT) , FR)
Text: TAF LFLW 241400Z 2415/2424 28008KT CAVOK
Forecast period: 1500 UTC 24 March 2019 to 0000 UTC 25 March 2019
Forecast type: FROM: standard forecast or significant change
Winds: from the W (280 degrees) at 9 MPH (8 knots; 4.1 m/s)
Visibility: 6 or more miles 10+ km)
Ceiling: unknown
Clouds: missing
Weather: NSW  (no significant weather)